NCAR-RAP Real-Time Weather Data

Output produced by METARs form (06 May 2021  16:40 UTC)
found at http://weather.rap.ucar.edu/surface/
 
KEED 061556Z AUTO 00000KT 10SM CLR 29/M05 A2996 RMK AO2 SLP112 T02941050 TSNO
KEED 061456Z AUTO 00000KT 10SM CLR 27/M05 A2996 RMK AO2 SLP113 T02721050 53013 TSNO
KEED 061356Z AUTO 00000KT 10SM CLR 24/M04 A2995 RMK AO2 SLP110 T02441044 TSNO
KEED 061256Z AUTO 27007KT 10SM CLR 22/M04 A2992 RMK AO2 SLP102 T02171039 TSNO
KEED 061156Z AUTO 24006KT 10SM CLR 23/M03 A2992 RMK AO2 SLP099 T02281028 10300 20228 53004 TSNO
KEED 061056Z AUTO 00000KT 10SM CLR 23/M04 A2991 RMK AO2 SLP096 T02331044 TSNO
KEED 060956Z AUTO 00000KT 10SM CLR 25/M05 A2991 RMK AO2 SLP096 T02501050 TSNO
KEED 060856Z AUTO 24006KT 10SM CLR 26/M05 A2991 RMK AO2 SLP093 T02611050 50001 TSNO
KEED 060756Z AUTO 25008KT 10SM CLR 27/M07 A2991 RMK AO2 SLP096 T02721072 403830206 TSNO
KEED 060656Z AUTO 19006KT 10SM CLR 28/M06 A2991 RMK AO2 SLP097 T02831061 TSNO
KEED 060556Z AUTO 23008KT 10SM CLR 29/M08 A2990 RMK AO2 SLP093 T02941078 10378 20294 51015 TSNO
KEED 060456Z AUTO 22011KT 10SM CLR 31/M07 A2989 RMK AO2 SLP090 T03111072 TSNO
KEED 060356Z AUTO 24011KT 10SM CLR 33/M06 A2988 RMK AO2 SLP086 T03281061 TSNO